createdAt,value
2018-06-19T00:01:54.651Z,97606.68
2018-06-19T00:04:24.554Z,97608.80
2018-06-19T00:06:54.524Z,97614.36
2018-06-19T00:09:27.347Z,97608.81
2018-06-19T00:11:56.522Z,97617.36
2018-06-19T00:14:25.841Z,97615.23
2018-06-19T00:16:55.980Z,97609.26
2018-06-19T00:19:29.582Z,97616.51
2018-06-19T00:22:00.738Z,97611.42
2018-06-19T00:24:29.958Z,97611.83
2018-06-19T00:26:59.202Z,97611.86
2018-06-19T00:29:28.483Z,97613.99
2018-06-19T00:31:57.731Z,97614.41
2018-06-19T00:34:26.952Z,97613.99
2018-06-19T00:36:56.174Z,97606.72
2018-06-19T00:39:25.389Z,97613.55
2018-06-19T00:41:54.954Z,97605.02
2018-06-19T00:44:24.888Z,97610.56
2018-06-19T00:46:55.591Z,97610.16
2018-06-19T00:49:26.152Z,97617.84
2018-06-19T00:51:59.090Z,97615.28
2018-06-19T00:54:28.243Z,97612.70
2018-06-19T00:56:58.684Z,97616.14
2018-06-19T00:59:28.297Z,97612.72
2018-06-19T01:01:59.131Z,97614.83
2018-06-19T01:04:28.409Z,97614.40
2018-06-19T01:06:57.601Z,97612.70
2018-06-19T01:09:26.745Z,97606.73
2018-06-19T01:11:55.900Z,97610.98
2018-06-19T01:14:25.339Z,97605.02
2018-06-19T01:16:55.341Z,97608.45
2018-06-19T01:19:25.360Z,97613.55
2018-06-19T01:21:55.269Z,97612.70
2018-06-19T01:24:25.333Z,97607.60
2018-06-19T01:26:55.454Z,97611.41
2018-06-19T01:29:25.442Z,97608.86
2018-06-19T01:31:55.440Z,97605.86
2018-06-19T01:34:25.408Z,97614.41
2018-06-19T01:36:55.394Z,97618.66
2018-06-19T01:39:25.492Z,97617.80
2018-06-19T01:41:55.518Z,97611.83
2018-06-19T01:44:25.484Z,97617.80
2018-06-19T01:46:55.478Z,97615.66
2018-06-19T01:49:25.596Z,97616.08
2018-06-19T01:51:55.668Z,97616.08
2018-06-19T01:54:25.689Z,97616.95
2018-06-19T01:56:55.556Z,97615.22
2018-06-19T01:59:27.307Z,97613.53
2018-06-19T02:01:56.626Z,97619.03
2018-06-19T02:04:25.837Z,97618.58
2018-06-19T02:06:55.719Z,97620.31
2018-06-19T02:09:25.872Z,97639.06
2018-06-19T02:11:55.903Z,97627.11
2018-06-19T02:14:25.963Z,97621.20
2018-06-19T02:16:55.925Z,97624.61
2018-06-19T02:19:25.907Z,97620.78
2018-06-19T02:21:55.958Z,97619.50
2018-06-19T02:24:26.144Z,97620.72
2018-06-19T02:26:55.990Z,97619.86
2018-06-19T02:29:26.060Z,97623.70
2018-06-19T02:31:56.016Z,97627.95
2018-06-19T02:34:27.955Z,97628.81
2018-06-19T02:36:57.115Z,97632.23
2018-06-19T02:39:26.250Z,97633.09
2018-06-19T02:41:56.238Z,97635.64
2018-06-19T02:44:26.174Z,97629.66
2018-06-19T02:46:56.245Z,97630.53
2018-06-19T02:49:26.289Z,97644.15
2018-06-19T02:51:58.244Z,97644.56
2018-06-19T02:54:27.408Z,97651.80
2018-06-19T02:56:57.540Z,97656.94
2018-06-19T02:59:26.696Z,97656.48
2018-06-19T03:01:56.372Z,97660.32
2018-06-19T03:04:26.498Z,97657.77
2018-06-19T03:06:57.012Z,97661.98
2018-06-19T03:09:26.506Z,97660.70
2018-06-19T03:11:55.616Z,97664.54
2018-06-19T03:14:24.736Z,97666.23
2018-06-19T03:16:53.930Z,97666.23
2018-06-19T03:19:23.029Z,97667.06
2018-06-19T03:21:52.179Z,97667.09
2018-06-19T03:24:21.272Z,97664.54
2018-06-19T03:26:50.354Z,97673.07
2018-06-19T03:29:20.976Z,97678.19
2018-06-19T03:31:50.096Z,97680.33
2018-06-19T03:34:19.188Z,97678.63
2018-06-19T03:36:48.276Z,97680.77
2018-06-19T03:39:17.406Z,97682.09
2018-06-19T03:41:46.510Z,97687.61
2018-06-19T03:44:15.726Z,97686.78
2018-06-19T03:46:45.027Z,97691.03
2018-06-19T03:49:14.198Z,97690.17
2018-06-19T03:51:43.338Z,97695.31
2018-06-19T03:54:19.163Z,97698.77
2018-06-19T03:56:48.312Z,97697.07
2018-06-19T03:59:17.542Z,97698.34
2018-06-19T04:01:47.466Z,97698.76
2018-06-19T04:04:16.623Z,97704.73
2018-06-19T04:06:45.749Z,97704.32
2018-06-19T04:09:14.937Z,97709.88
2018-06-19T04:11:44.159Z,97710.33
2018-06-19T04:14:13.375Z,97707.34
2018-06-19T04:16:42.525Z,97706.52
2018-06-19T04:19:15.221Z,97709.06
2018-06-19T04:21:44.359Z,97715.05
2018-06-19T04:24:13.534Z,97711.65
2018-06-19T04:26:42.732Z,97716.76
2018-06-19T04:29:11.825Z,97713.78
2018-06-19T04:31:40.922Z,97718.47
2018-06-19T04:34:10.097Z,97714.20
2018-06-19T04:36:39.217Z,97715.06
2018-06-19T04:39:11.399Z,97710.80
2018-06-19T04:41:41.768Z,97712.07
2018-06-19T04:44:10.881Z,97708.26
2018-06-19T04:46:41.039Z,97711.67
2018-06-19T04:49:10.182Z,97715.07
2018-06-19T04:51:39.388Z,97718.48
2018-06-19T04:54:08.581Z,97717.66
2018-06-19T04:56:37.652Z,97718.49
2018-06-19T04:59:06.805Z,97713.39
2018-06-19T05:01:36.001Z,97719.34
2018-06-19T05:04:05.301Z,97718.07
2018-06-19T05:06:34.594Z,97717.64
2018-06-19T05:09:04.013Z,97720.22
2018-06-19T05:11:33.139Z,97716.83
2018-06-19T05:14:02.331Z,97716.39
2018-06-19T05:16:31.593Z,97722.78
2018-06-19T05:19:00.986Z,97722.34
2018-06-19T05:21:30.185Z,97722.34
2018-06-19T05:23:59.501Z,97721.91
2018-06-19T05:26:29.095Z,97724.02
2018-06-19T05:28:59.377Z,97721.47
2018-06-19T05:31:29.407Z,97725.28
2018-06-19T05:33:59.350Z,97728.69
2018-06-19T05:36:29.229Z,97730.41
2018-06-19T05:38:59.108Z,97730.81
2018-06-19T05:41:29.281Z,97730.36
2018-06-19T05:43:59.182Z,97737.19
2018-06-19T05:46:29.379Z,97739.72
2018-06-19T05:48:59.436Z,97730.29
2018-06-19T05:51:29.475Z,97730.71
2018-06-19T05:53:59.543Z,97737.10
2018-06-19T05:56:29.393Z,97737.08
2018-06-19T05:58:59.342Z,97741.34
2018-06-19T06:01:29.489Z,97747.75
2018-06-19T06:03:59.411Z,97742.58
2018-06-19T06:06:29.435Z,97743.00
2018-06-19T06:08:59.813Z,97744.72
2018-06-19T06:11:29.605Z,97745.54
2018-06-19T06:13:59.521Z,97753.25
2018-06-19T06:16:29.566Z,97754.06
2018-06-19T06:18:59.608Z,97748.04
2018-06-19T06:21:29.829Z,97758.28
2018-06-19T06:23:59.593Z,97765.16
2018-06-19T06:26:29.716Z,97751.89
2018-06-19T06:28:59.694Z,97759.14
2018-06-19T06:31:29.694Z,97758.70
2018-06-19T06:33:59.698Z,97768.06
2018-06-19T06:36:29.894Z,97765.03
2018-06-19T06:38:59.888Z,97768.00
2018-06-19T06:41:29.909Z,97765.82
2018-06-19T06:43:59.875Z,97767.48
2018-06-19T06:46:29.858Z,97769.08
2018-06-19T06:49:00.082Z,97766.46
2018-06-19T06:51:29.970Z,97765.93
2018-06-19T06:53:59.976Z,97763.73
2018-06-19T06:56:29.920Z,97773.89
2018-06-19T06:58:59.934Z,97774.56
2018-06-19T07:01:30.013Z,97770.97
2018-06-19T07:04:00.084Z,97770.76
2018-06-19T07:06:30.300Z,97772.23
2018-06-19T07:09:00.065Z,97776.77
2018-06-19T07:11:30.188Z,97774.06
2018-06-19T07:14:00.261Z,97771.83
2018-06-19T07:16:30.092Z,97778.11
2018-06-19T07:19:00.252Z,97775.06
2018-06-19T07:21:30.200Z,97772.58
2018-06-19T07:24:10.657Z,97779.45
2018-06-19T07:37:36.853Z,97761.70
2018-06-19T07:40:06.046Z,97757.86
2018-06-19T07:42:35.419Z,97752.58
2018-06-19T07:45:05.000Z,97754.81
2018-06-19T07:47:35.160Z,97757.14
2018-06-19T07:50:04.740Z,97759.81
2018-06-19T07:52:34.095Z,97762.30
2018-06-19T07:55:03.298Z,97758.69
2018-06-19T07:57:32.467Z,97752.85
2018-06-19T08:00:01.627Z,97754.65
2018-06-19T08:02:30.797Z,97747.20
2018-06-19T08:04:59.913Z,97749.82
2018-06-19T08:07:28.996Z,97748.56
2018-06-19T08:09:58.104Z,97745.19
2018-06-19T08:12:27.193Z,97747.77
2018-06-19T08:14:56.452Z,97746.97
2018-06-19T08:17:25.644Z,97747.07
2018-06-19T08:19:54.852Z,97743.56
2018-06-19T08:22:24.025Z,97752.07
2018-06-19T08:24:53.237Z,97752.86
2018-06-19T08:27:22.612Z,97748.36
2018-06-19T08:29:52.072Z,97752.21
2018-06-19T08:32:21.729Z,97754.69
2018-06-19T08:34:50.920Z,97754.00
2018-06-19T08:37:20.152Z,97755.33
2018-06-19T08:39:49.317Z,97748.02
2018-06-19T08:42:18.512Z,97750.42
2018-06-19T08:44:47.710Z,97742.64
2018-06-19T08:47:17.047Z,97742.49
2018-06-19T08:49:46.211Z,97744.37
2018-06-19T08:52:15.440Z,97740.16
2018-06-19T08:54:44.836Z,97738.39
2018-06-19T08:57:14.220Z,97741.86
2018-06-19T08:59:43.484Z,97738.50
2018-06-19T09:02:12.850Z,97736.99
2018-06-19T09:04:41.987Z,97737.80
2018-06-19T09:07:11.236Z,97739.83
2018-06-19T09:09:40.443Z,97746.08
2018-06-19T09:12:09.670Z,97743.63
2018-06-19T09:14:39.043Z,97738.28
2018-06-19T09:17:08.158Z,97735.09
2018-06-19T09:19:37.480Z,97725.69
2018-06-19T09:22:06.919Z,97729.84
2018-06-19T09:24:36.335Z,97724.00
2018-06-19T09:27:05.876Z,97728.59
2018-06-19T09:29:35.109Z,97729.91
2018-06-19T09:32:04.283Z,97727.94
2018-06-19T09:34:33.815Z,97731.25
2018-06-19T09:37:03.051Z,97732.67
2018-06-19T09:39:32.290Z,97732.81
2018-06-19T09:42:01.487Z,97733.27
2018-06-19T09:44:30.716Z,97729.19
2018-06-19T09:47:00.065Z,97725.81
2018-06-19T09:49:29.747Z,97729.85
2018-06-19T09:51:59.166Z,97725.58
2018-06-19T09:54:35.258Z,97730.30
2018-06-19T09:57:04.608Z,97721.89
2018-06-19T09:59:33.836Z,97720.78
2018-06-19T10:02:03.028Z,97718.38
2018-06-19T10:04:32.194Z,97718.60
2018-06-19T10:07:01.416Z,97717.47
2018-06-19T10:09:30.561Z,97719.03
2018-06-19T10:11:59.820Z,97725.16
2018-06-19T10:14:28.908Z,97727.40
2018-06-19T10:16:58.100Z,97731.09
2018-06-19T10:19:27.300Z,97737.19
2018-06-19T10:21:56.363Z,97726.98
2018-06-19T10:24:25.523Z,97732.25
2018-06-19T10:26:54.867Z,97731.28
2018-06-19T10:29:24.445Z,97730.86
2018-06-19T10:31:53.572Z,97728.22
2018-06-19T10:34:22.795Z,97725.78
2018-06-19T10:36:51.958Z,97727.88
2018-06-19T10:39:21.190Z,97725.05
2018-06-19T10:41:50.395Z,97728.21
2018-06-19T10:44:19.505Z,97728.93
2018-06-19T10:46:48.708Z,97725.67
2018-06-19T10:49:17.833Z,97724.30
2018-06-19T10:51:46.955Z,97726.98
2018-06-19T10:54:16.079Z,97720.16
2018-06-19T10:56:45.250Z,97722.75
2018-06-19T10:59:14.354Z,97723.02
2018-06-19T11:01:43.588Z,97731.92
2018-06-19T11:04:12.673Z,97724.33
2018-06-19T11:06:41.872Z,97725.05
2018-06-19T11:09:12.393Z,97724.34
2018-06-19T11:11:42.083Z,97722.80
2018-06-19T11:14:11.286Z,97720.89
2018-06-19T11:16:40.359Z,97720.16
2018-06-19T11:19:12.442Z,97715.47
2018-06-19T11:21:41.566Z,97721.70
2018-06-19T11:24:10.801Z,97710.45
2018-06-19T11:26:39.982Z,97708.38
2018-06-19T11:29:09.384Z,97714.77
2018-06-19T11:31:38.489Z,97719.84
2018-06-19T11:34:07.765Z,97722.75
2018-06-19T11:36:37.030Z,97715.22
2018-06-19T11:39:09.565Z,97711.56
2018-06-19T11:41:38.794Z,97711.06
2018-06-19T11:44:08.073Z,97705.98
2018-06-19T11:46:37.219Z,97706.10
2018-06-19T11:49:06.559Z,97709.77
2018-06-19T11:51:36.118Z,97710.43
2018-06-19T11:54:05.310Z,97705.77
2018-06-19T11:56:34.402Z,97705.52
2018-06-19T11:59:03.549Z,97701.00
2018-06-19T12:01:32.803Z,97698.45
2018-06-19T12:04:01.934Z,97703.48
2018-06-19T12:06:31.165Z,97705.98
2018-06-19T12:09:00.362Z,97698.56
2018-06-19T12:11:29.547Z,97692.39
2018-06-19T12:13:58.760Z,97695.52
2018-06-19T12:16:28.100Z,97691.41
2018-06-19T12:18:57.398Z,97693.69
2018-06-19T12:21:26.521Z,97695.47
2018-06-19T12:23:55.762Z,97686.48
2018-06-19T12:26:25.043Z,97687.45
2018-06-19T12:28:54.329Z,97680.70
2018-06-19T12:31:23.607Z,97679.66
2018-06-19T12:33:52.825Z,97684.55
2018-06-19T12:36:22.066Z,97682.30
2018-06-19T12:38:51.259Z,97676.86
2018-06-19T12:41:20.456Z,97686.46
2018-06-19T12:43:49.691Z,97681.13
2018-06-19T12:46:19.008Z,97682.77
2018-06-19T12:48:48.176Z,97674.17
2018-06-19T12:51:37.623Z,97670.78
2018-06-19T12:54:15.516Z,97676.05
2018-06-19T12:56:44.998Z,97670.96
2018-06-19T12:59:14.253Z,97664.84
2018-06-19T13:01:43.406Z,97667.81
2018-06-19T13:05:22.466Z,97668.51
2018-06-19T13:07:51.805Z,97663.91
2018-06-19T13:10:21.099Z,97666.69
2018-06-19T13:13:31.261Z,97659.94
2018-06-19T13:16:00.408Z,97659.48
2018-06-19T13:18:41.933Z,97656.98
2018-06-19T13:21:11.076Z,97651.23
2018-06-19T13:23:40.496Z,97653.41
2018-06-19T13:26:09.691Z,97656.19
2018-06-19T13:29:54.153Z,97642.12
2018-06-19T13:32:23.590Z,97644.02
2018-06-19T13:34:52.809Z,97643.22
2018-06-19T13:37:21.964Z,97647.39
2018-06-19T13:41:20.158Z,97641.66
2018-06-19T13:44:02.028Z,97647.65
2018-06-19T13:46:31.206Z,97642.17
2018-06-19T13:49:00.370Z,97643.33
2018-06-19T13:51:29.659Z,97642.01
2018-06-19T13:53:58.976Z,97637.28
2018-06-19T13:57:42.521Z,97634.97
2018-06-19T14:00:14.783Z,97644.88
2018-06-19T14:02:44.020Z,97638.05
2018-06-19T14:05:14.135Z,97636.75
2018-06-19T14:08:48.540Z,97640.41
2018-06-19T14:11:28.969Z,97643.69
2018-06-19T14:13:58.227Z,97636.20
2018-06-19T14:16:27.280Z,97635.26
2018-06-19T14:18:56.478Z,97634.98
2018-06-19T14:21:25.597Z,97630.69
2018-06-19T14:23:54.891Z,97631.13
2018-06-19T14:26:24.133Z,97632.24
2018-06-19T14:28:53.482Z,97630.84
2018-06-19T14:31:22.828Z,97630.58
2018-06-19T14:33:52.036Z,97629.27
2018-06-19T14:36:21.177Z,97626.61
2018-06-19T14:38:50.435Z,97625.17
2018-06-19T14:41:19.656Z,97623.59
2018-06-19T14:43:48.851Z,97618.53
2018-06-19T14:46:17.993Z,97620.38
2018-06-19T14:48:47.136Z,97602.78
2018-06-19T14:51:16.318Z,97623.12
2018-06-19T14:53:45.543Z,97614.59
2018-06-19T14:56:15.139Z,97612.81
2018-06-19T14:58:44.383Z,97610.69
2018-06-19T15:01:13.578Z,97616.55
2018-06-19T15:03:42.713Z,97606.04
2018-06-19T15:06:11.965Z,97608.45
2018-06-19T15:08:41.166Z,97599.95
2018-06-19T15:11:10.345Z,97600.39
2018-06-19T15:13:39.529Z,97604.90
2018-06-19T15:16:08.861Z,97602.48
2018-06-19T15:18:38.010Z,97600.87
2018-06-19T15:21:07.251Z,97594.47
2018-06-19T15:23:36.682Z,97594.56
2018-06-19T15:26:06.005Z,97596.58
2018-06-19T15:28:35.192Z,97597.86
2018-06-19T15:31:04.375Z,97591.48
2018-06-19T15:33:33.489Z,97591.11
2018-06-19T15:36:02.947Z,97596.69
2018-06-19T15:38:32.128Z,97596.83
2018-06-19T15:41:01.280Z,97602.42
2018-06-19T15:43:30.520Z,97595.93
2018-06-19T15:45:59.682Z,97589.75
2018-06-19T15:48:28.943Z,97595.19
2018-06-19T15:50:58.407Z,97595.69
2018-06-19T15:53:27.521Z,97598.52
2018-06-19T15:55:56.680Z,97600.09
2018-06-19T15:58:25.809Z,97599.17
2018-06-19T16:00:54.916Z,97596.58
2018-06-19T16:03:24.058Z,97596.55
2018-06-19T16:05:53.308Z,97596.12
2018-06-19T16:08:22.490Z,97592.30
2018-06-19T16:10:51.645Z,97596.77
2018-06-19T16:13:20.927Z,97602.09
2018-06-19T16:15:50.229Z,97593.66
2018-06-19T16:18:19.640Z,97598.55
2018-06-19T16:20:48.813Z,97598.55
2018-06-19T16:23:17.906Z,97605.16
2018-06-19T16:25:47.068Z,97592.11
2018-06-19T16:28:16.220Z,97597.30
2018-06-19T16:30:45.550Z,97597.30
2018-06-19T16:33:14.793Z,97595.44
2018-06-19T16:35:43.997Z,97599.59
2018-06-19T16:38:13.202Z,97593.31
2018-06-19T16:40:42.361Z,97591.20
2018-06-19T16:43:11.486Z,97601.25
2018-06-19T16:45:40.622Z,97589.53
2018-06-19T16:48:10.004Z,97595.09
2018-06-19T16:50:39.195Z,97593.25
2018-06-19T16:53:08.334Z,97585.80
2018-06-19T16:55:37.521Z,97589.66
2018-06-19T16:58:06.656Z,97588.99
2018-06-19T17:00:35.860Z,97590.13
2018-06-19T17:03:05.185Z,97587.73
2018-06-19T17:05:34.362Z,97591.91
2018-06-19T17:08:03.678Z,97590.28
2018-06-19T17:10:32.967Z,97593.00
2018-06-19T17:13:02.171Z,97587.21
2018-06-19T17:15:31.318Z,97588.25
2018-06-19T17:18:00.684Z,97586.95
2018-06-19T17:20:29.912Z,97591.05
2018-06-19T17:22:59.032Z,97586.11
2018-06-19T17:25:28.346Z,97593.59
2018-06-19T17:27:57.792Z,97593.02
2018-06-19T17:30:27.200Z,97592.83
2018-06-19T17:32:56.551Z,97590.80
2018-06-19T17:35:25.868Z,97593.99
2018-06-19T17:37:55.125Z,97586.30
2018-06-19T17:40:25.025Z,97580.84
2018-06-19T17:42:54.254Z,97587.45
2018-06-19T17:45:23.493Z,97581.44
2018-06-19T17:47:52.797Z,97580.80
2018-06-19T17:50:22.190Z,97586.17
2018-06-19T17:52:51.572Z,97586.39
2018-06-19T17:55:21.196Z,97585.66
2018-06-19T17:57:50.499Z,97582.38
2018-06-19T18:00:19.749Z,97584.16
2018-06-19T18:02:48.928Z,97580.08
2018-06-19T18:05:18.238Z,97577.64
2018-06-19T18:07:47.581Z,97582.06
2018-06-19T18:10:17.112Z,97581.38
2018-06-19T18:12:46.457Z,97581.91
2018-06-19T18:15:15.707Z,97574.27
2018-06-19T18:17:44.993Z,97579.13
2018-06-19T18:20:14.175Z,97582.24
2018-06-19T18:22:43.862Z,97581.83
2018-06-19T18:25:13.224Z,97584.52
2018-06-19T18:27:42.364Z,97580.77
2018-06-19T18:30:11.603Z,97587.34
2018-06-19T18:32:40.723Z,97587.39
2018-06-19T18:35:10.018Z,97590.03
2018-06-19T18:37:39.362Z,97594.80
2018-06-19T18:40:08.641Z,97588.32
2018-06-19T18:42:37.956Z,97587.03
2018-06-19T18:45:07.432Z,97584.05
2018-06-19T18:47:36.798Z,97581.53
2018-06-19T18:50:06.585Z,97590.20
2018-06-19T18:52:35.991Z,97589.08
2018-06-19T18:55:05.350Z,97586.36
2018-06-19T18:57:34.637Z,97587.53
2018-06-19T19:00:03.936Z,97592.91
2018-06-19T19:02:33.150Z,97594.02
2018-06-19T19:05:02.464Z,97594.27
2018-06-19T19:07:31.782Z,97593.67
2018-06-19T19:10:06.325Z,97596.59
2018-06-19T19:12:35.771Z,97596.31
2018-06-19T19:15:10.363Z,97602.95
2018-06-19T19:17:44.927Z,97597.11
2018-06-19T19:20:14.371Z,97607.63
2018-06-19T19:22:44.132Z,97604.36
2018-06-19T19:25:13.406Z,97607.98
2018-06-19T19:27:54.542Z,97612.08
2018-06-19T19:30:23.716Z,97619.14
2018-06-19T19:32:53.035Z,97628.40
2018-06-19T19:35:22.332Z,97626.89
2018-06-19T19:37:56.812Z,97630.49
2018-06-19T19:40:26.020Z,97628.46
2018-06-19T19:42:55.256Z,97634.99
2018-06-19T19:45:24.817Z,97635.94
2018-06-19T19:47:59.189Z,97634.72
2018-06-19T19:50:28.389Z,97630.58
2018-06-19T19:52:57.699Z,97628.53
2018-06-19T19:55:26.888Z,97634.98
2018-06-19T19:58:01.396Z,97638.04
2018-06-19T20:00:30.800Z,97642.38
2018-06-19T20:03:00.455Z,97638.08
2018-06-19T20:05:29.914Z,97638.55
2018-06-19T20:07:59.166Z,97631.23
2018-06-19T20:10:28.416Z,97637.22
2018-06-19T20:12:57.555Z,97635.97
2018-06-19T20:15:26.860Z,97639.91
2018-06-19T20:17:56.055Z,97637.76
2018-06-19T20:20:25.233Z,97636.51
2018-06-19T20:22:54.606Z,97635.77
2018-06-19T20:25:23.883Z,97638.37
2018-06-19T20:27:53.101Z,97634.19
2018-06-19T20:30:22.394Z,97634.23
2018-06-19T20:32:51.654Z,97640.25
2018-06-19T20:35:20.924Z,97644.58
2018-06-19T20:37:50.369Z,97637.73
2018-06-19T20:40:19.596Z,97641.72
2018-06-19T20:42:48.882Z,97643.14
2018-06-19T20:45:18.162Z,97638.05
2018-06-19T20:47:47.326Z,97638.98
2018-06-19T20:50:16.416Z,97637.41
2018-06-19T20:52:45.750Z,97637.50
2018-06-19T20:55:15.170Z,97637.57
2018-06-19T20:57:44.442Z,97634.16
2018-06-19T21:00:13.645Z,97635.03
2018-06-19T21:02:42.930Z,97633.34
2018-06-19T21:05:12.170Z,97641.94
2018-06-19T21:07:41.355Z,97633.41
2018-06-19T21:10:10.691Z,97640.71
2018-06-19T21:12:39.913Z,97636.91
2018-06-19T21:15:09.149Z,97641.23
2018-06-19T21:17:38.357Z,97641.30
2018-06-19T21:20:07.545Z,97645.56
2018-06-19T21:22:36.750Z,97643.42
2018-06-19T21:25:06.278Z,97642.12
2018-06-19T21:27:35.755Z,97642.12
2018-06-19T21:30:05.521Z,97646.42
2018-06-19T21:32:34.674Z,97641.30
2018-06-19T21:35:04.043Z,97642.53
2018-06-19T21:37:33.255Z,97643.42
2018-06-19T21:40:02.402Z,97644.70
2018-06-19T21:42:31.511Z,97640.44
2018-06-19T21:45:00.745Z,97644.70
2018-06-19T21:47:29.855Z,97647.69
2018-06-19T21:49:59.032Z,97643.88
2018-06-19T21:52:28.155Z,97641.30
2018-06-19T21:54:57.494Z,97640.41
2018-06-19T21:57:26.667Z,97642.98
2018-06-19T21:59:55.857Z,97638.73
2018-06-19T22:02:30.310Z,97640.02
2018-06-19T22:04:59.904Z,97642.16
2018-06-19T22:07:29.012Z,97636.24
2018-06-19T22:09:58.243Z,97637.14
2018-06-19T22:12:27.408Z,97637.14
2018-06-19T22:14:56.571Z,97639.71
2018-06-19T22:17:25.847Z,97639.71
2018-06-19T22:19:54.968Z,97643.58
2018-06-19T22:22:24.289Z,97640.51
2018-06-19T22:24:56.650Z,97645.66
2018-06-19T22:27:25.786Z,97647.45
2018-06-19T22:29:54.949Z,97646.58
2018-06-19T22:32:24.213Z,97648.27
2018-06-19T22:34:53.400Z,97647.84
2018-06-19T22:37:22.529Z,97649.12
2018-06-19T22:39:51.712Z,97644.83
2018-06-19T22:42:21.041Z,97654.22
2018-06-19T22:44:50.441Z,97650.36
2018-06-19T22:47:19.757Z,97648.20
2018-06-19T22:49:48.955Z,97645.63
2018-06-19T22:52:18.145Z,97643.91
2018-06-19T22:54:47.334Z,97643.91
2018-06-19T22:57:16.447Z,97637.93
2018-06-19T22:59:45.671Z,97640.05
2018-06-19T23:02:14.798Z,97636.18
2018-06-19T23:04:44.065Z,97631.05
2018-06-19T23:07:13.492Z,97630.72
2018-06-19T23:09:42.596Z,97627.81
2018-06-19T23:12:11.682Z,97626.19
2018-06-19T23:14:40.861Z,97633.58
2018-06-19T23:17:09.955Z,97624.56
2018-06-19T23:19:39.143Z,97626.70
2018-06-19T23:22:08.289Z,97628.86
2018-06-19T23:24:37.615Z,97630.17
2018-06-19T23:27:07.075Z,97630.60
2018-06-19T23:29:36.377Z,97629.71
2018-06-19T23:32:05.559Z,97630.60
2018-06-19T23:34:34.879Z,97628.91
2018-06-19T23:37:04.073Z,97633.23
2018-06-19T23:39:33.197Z,97631.52
2018-06-19T23:42:02.304Z,97629.84
2018-06-19T23:44:31.628Z,97632.41
2018-06-19T23:47:00.854Z,97631.98
2018-06-19T23:49:30.268Z,97629.84
2018-06-19T23:51:59.405Z,97629.86
2018-06-19T23:54:28.589Z,97628.14
2018-06-19T23:56:57.730Z,97625.14
2018-06-19T23:59:26.882Z,97623.80
